createdAt,value
2023-03-10T00:04:53.366Z,97860.28
2023-03-10T00:09:54.846Z,97846.81
2023-03-10T00:14:56.440Z,97848.28
2023-03-10T00:19:57.819Z,97822.69
2023-03-10T00:24:59.292Z,97824.88
2023-03-10T00:30:01.134Z,97842.19
2023-03-10T00:35:02.594Z,97811.28
2023-03-10T00:40:07.282Z,97789.41
2023-03-10T00:45:10.276Z,97793.28
2023-03-10T00:50:11.875Z,97793.28
2023-03-10T00:55:13.281Z,97802.03
2023-03-10T01:00:17.830Z,97787.44
2023-03-10T01:05:19.610Z,97795.31
2023-03-10T01:10:22.180Z,97758.78
2023-03-10T01:15:23.559Z,97732.66
2023-03-10T01:20:25.050Z,97776.09
2023-03-10T01:25:28.096Z,97747.00
2023-03-10T01:30:29.446Z,97736.22
2023-03-10T01:35:31.278Z,97710.06
2023-03-10T01:40:32.790Z,97715.28
2023-03-10T01:45:34.159Z,97726.03
2023-03-10T01:50:35.836Z,97714.53
2023-03-10T01:55:43.550Z,97715.72
2023-03-10T02:00:44.985Z,97676.84
2023-03-10T02:05:51.906Z,97700.94
2023-03-10T02:10:53.767Z,97684.44
2023-03-10T02:15:55.172Z,97687.00
2023-03-10T02:21:20.061Z,97684.97
2023-03-10T02:26:39.987Z,97681.28
2023-03-10T02:31:42.086Z,97664.03
2023-03-10T02:36:43.487Z,97668.59
2023-03-10T02:41:45.924Z,97663.28
2023-03-10T02:46:47.682Z,97637.28
2023-03-10T02:51:49.187Z,97667.75
2023-03-10T02:56:50.625Z,97666.97
2023-03-10T03:01:52.058Z,97640.03
2023-03-10T03:06:53.424Z,97672.28
2023-03-10T03:11:54.832Z,97676.16
2023-03-10T03:16:56.188Z,97647.94
2023-03-10T03:21:57.497Z,97638.94
2023-03-10T03:26:59.292Z,97643.72
2023-03-10T03:32:00.657Z,97638.38
2023-03-10T03:37:02.037Z,97619.69
2023-03-10T03:42:03.662Z,97609.28
2023-03-10T03:47:05.305Z,97607.84
2023-03-10T03:52:07.499Z,97633.75
2023-03-10T03:57:09.110Z,97617.53
2023-03-10T04:02:10.686Z,97604.09
2023-03-10T04:07:12.150Z,97654.66
2023-03-10T04:12:13.474Z,97627.53
2023-03-10T04:17:14.790Z,97640.84
2023-03-10T04:22:16.228Z,97630.31
2023-03-10T04:27:17.574Z,97600.00
2023-03-10T04:32:19.323Z,97629.94
2023-03-10T04:37:21.758Z,97606.72
2023-03-10T04:42:24.203Z,97643.72
2023-03-10T04:47:26.001Z,97631.50
2023-03-10T04:52:27.529Z,97611.28
2023-03-10T04:57:28.967Z,97591.13
2023-03-10T05:02:32.119Z,97600.63
2023-03-10T05:07:33.552Z,97583.06
2023-03-10T05:12:34.935Z,97605.53
2023-03-10T05:17:36.313Z,97620.31
2023-03-10T05:22:38.835Z,97620.44
2023-03-10T05:27:40.263Z,97587.63
2023-03-10T05:32:43.112Z,97572.41
2023-03-10T05:37:44.827Z,97583.56
2023-03-10T05:42:47.381Z,97574.56
2023-03-10T05:47:48.829Z,97598.41
2023-03-10T05:52:50.459Z,97595.75
2023-03-10T05:57:51.905Z,97587.75
2023-03-10T06:02:53.385Z,97577.50
2023-03-10T06:07:54.866Z,97582.28
2023-03-10T06:12:56.365Z,97574.56
2023-03-10T06:17:57.759Z,97579.50
2023-03-10T06:22:59.413Z,97588.13
2023-03-10T06:28:00.745Z,97568.00
2023-03-10T06:33:02.702Z,97592.56
2023-03-10T06:38:04.038Z,97569.94
2023-03-10T06:43:05.445Z,97578.25
2023-03-10T06:48:06.908Z,97574.19
2023-03-10T06:53:09.719Z,97590.22
2023-03-10T06:58:11.193Z,97579.88
2023-03-10T07:03:12.746Z,97576.97
2023-03-10T07:08:14.116Z,97596.50
2023-03-10T07:13:17.135Z,97570.44
2023-03-10T07:18:19.416Z,97585.19
2023-03-10T07:23:20.915Z,97584.25
2023-03-10T07:28:23.742Z,97578.50
2023-03-10T07:33:25.252Z,97550.88
2023-03-10T07:38:26.614Z,97559.22
2023-03-10T07:43:27.999Z,97562.69
2023-03-10T07:48:29.544Z,97572.94
2023-03-10T07:53:31.498Z,97557.34
2023-03-10T07:58:34.181Z,97573.00
2023-03-10T08:03:36.012Z,97573.41
2023-03-10T08:08:38.151Z,97570.59
2023-03-10T08:13:40.303Z,97560.06
2023-03-10T08:18:42.270Z,97585.47
2023-03-10T08:23:43.888Z,97585.34
2023-03-10T08:28:47.189Z,97588.72
2023-03-10T08:33:49.656Z,97592.75
2023-03-10T08:38:53.039Z,97598.13
2023-03-10T08:43:56.146Z,97594.34
2023-03-10T08:48:58.687Z,97597.13
2023-03-10T08:54:00.409Z,97592.75
2023-03-10T08:59:01.730Z,97610.53
2023-03-10T09:04:05.237Z,97597.78
2023-03-10T09:09:08.767Z,97616.91
2023-03-10T09:14:11.833Z,97611.56
2023-03-10T09:19:13.174Z,97621.69
2023-03-10T09:24:14.507Z,97619.09
2023-03-10T09:29:16.297Z,97634.16
2023-03-10T09:34:17.673Z,97639.50
2023-03-10T09:39:19.428Z,97629.66
2023-03-10T09:44:39.066Z,97624.03
2023-03-10T09:49:54.047Z,97627.94
2023-03-10T09:55:29.991Z,97634.22
2023-03-10T10:00:40.657Z,97631.94
2023-03-10T10:05:44.383Z,97625.16
2023-03-10T10:10:49.371Z,97639.53
2023-03-10T10:16:18.299Z,97631.50
2023-03-10T10:21:42.331Z,97623.84
2023-03-10T10:26:44.365Z,97647.31
2023-03-10T10:32:04.401Z,97639.56
2023-03-10T10:37:28.275Z,97638.44
2023-03-10T10:42:34.538Z,97639.34
2023-03-10T10:47:47.357Z,97634.38
2023-03-10T10:52:52.989Z,97629.38
2023-03-10T10:58:01.762Z,97627.03
2023-03-10T11:03:31.298Z,97629.75
2023-03-10T11:08:39.261Z,97632.25
2023-03-10T11:14:00.083Z,97605.69
2023-03-10T11:19:13.258Z,97632.22
2023-03-10T11:24:48.037Z,97625.75
2023-03-10T11:29:55.204Z,97627.50
2023-03-10T11:34:58.277Z,97614.84
2023-03-10T11:40:08.611Z,97617.34
2023-03-10T11:45:27.588Z,97591.72
2023-03-10T11:50:28.889Z,97609.81
2023-03-10T11:55:30.611Z,97605.81
2023-03-10T12:00:39.575Z,97609.34
2023-03-10T12:05:50.913Z,97583.69
2023-03-10T12:10:53.660Z,97576.28
2023-03-10T12:16:00.757Z,97591.91
2023-03-10T12:21:12.045Z,97580.41
2023-03-10T12:26:14.495Z,97597.00
2023-03-10T12:31:37.521Z,97596.34
2023-03-10T12:36:43.286Z,97570.88
2023-03-10T12:41:49.503Z,97565.53
2023-03-10T12:47:09.151Z,97573.97
2023-03-10T12:52:28.492Z,97558.47
2023-03-10T12:57:38.919Z,97543.72
2023-03-10T13:02:50.803Z,97551.28
2023-03-10T13:07:57.046Z,97542.31
2023-03-10T13:13:05.699Z,97561.63
2023-03-10T13:18:21.172Z,97560.34
2023-03-10T13:23:25.761Z,97566.59
2023-03-10T13:28:30.126Z,97552.75
2023-03-10T13:33:37.423Z,97546.66
2023-03-10T13:38:45.243Z,97540.84
2023-03-10T13:43:48.531Z,97543.50
2023-03-10T13:48:50.699Z,97546.34
2023-03-10T13:53:55.183Z,97554.94
2023-03-10T13:59:01.865Z,97556.84
2023-03-10T14:04:08.616Z,97543.22
2023-03-10T14:09:12.896Z,97548.13
2023-03-10T14:14:33.146Z,97532.03
2023-03-10T14:19:38.608Z,97527.09
2023-03-10T14:24:40.631Z,97539.25
2023-03-10T14:29:49.886Z,97521.75
2023-03-10T14:34:51.634Z,97532.13
2023-03-10T14:39:53.135Z,97522.13
2023-03-10T14:44:54.549Z,97549.75
2023-03-10T14:49:56.032Z,97525.53
2023-03-10T14:54:57.337Z,97541.81
2023-03-10T15:00:00.651Z,97521.75
2023-03-10T15:05:02.107Z,97490.56
2023-03-10T15:10:11.922Z,97567.59
2023-03-10T15:15:26.381Z,97579.25
2023-03-10T15:20:27.973Z,97574.00
2023-03-10T15:25:30.309Z,97517.06
2023-03-10T15:30:36.256Z,97594.66
2023-03-10T15:35:38.833Z,97587.25
2023-03-10T15:40:41.603Z,97586.19
2023-03-10T15:45:46.770Z,97606.09
2023-03-10T15:50:49.120Z,97606.03
2023-03-10T15:55:52.511Z,97620.06
2023-03-10T16:00:53.875Z,97639.03
2023-03-10T16:05:55.240Z,97644.34
2023-03-10T16:10:56.689Z,97660.63
2023-03-10T16:15:58.296Z,97659.16
2023-03-10T16:21:01.676Z,97659.44
2023-03-10T16:26:10.645Z,97656.78
2023-03-10T16:31:14.213Z,97675.66
2023-03-10T16:36:18.366Z,97675.09
2023-03-10T16:41:21.086Z,97695.19
2023-03-10T16:46:25.524Z,97727.50
2023-03-10T16:51:35.118Z,97729.22
2023-03-10T16:56:39.550Z,97729.53
2023-03-10T17:01:41.068Z,97734.75
2023-03-10T17:06:43.108Z,97769.06
2023-03-10T17:11:55.280Z,97761.69
2023-03-10T17:16:57.086Z,97751.47
2023-03-10T17:21:58.999Z,97777.19
2023-03-10T17:27:00.417Z,97796.63
2023-03-10T17:32:01.785Z,97812.63
2023-03-10T17:37:03.194Z,97838.81
2023-03-10T17:42:04.844Z,97839.03
2023-03-10T17:47:06.333Z,97835.56
2023-03-10T17:52:07.725Z,97871.22
2023-03-10T17:57:09.229Z,97867.06
2023-03-10T18:02:12.341Z,97878.31
2023-03-10T18:07:14.023Z,97827.97
2023-03-10T18:12:16.291Z,97845.22
2023-03-10T18:17:17.613Z,97865.31
2023-03-10T18:22:19.264Z,97892.63
2023-03-10T18:27:20.598Z,97917.47
2023-03-10T18:32:24.271Z,97910.19
2023-03-10T18:37:26.532Z,97930.22
2023-03-10T18:42:28.366Z,97958.81
2023-03-10T18:47:29.800Z,97987.31
2023-03-10T18:52:32.965Z,98037.59
2023-03-10T18:57:34.593Z,98061.09
2023-03-10T19:02:36.305Z,98063.25
2023-03-10T19:07:37.890Z,98081.16
2023-03-10T19:12:39.871Z,98074.13
2023-03-10T19:17:41.882Z,98119.34
2023-03-10T19:22:47.302Z,98134.56
2023-03-10T19:27:48.926Z,98126.03
2023-03-10T19:32:50.424Z,98161.06
2023-03-10T19:37:51.823Z,98189.72
2023-03-10T19:42:53.263Z,98249.59
2023-03-10T19:48:00.898Z,98287.34
2023-03-10T19:53:02.427Z,98305.41
2023-03-10T19:58:03.815Z,98340.50
2023-03-10T20:03:05.427Z,98368.41
2023-03-10T20:08:08.226Z,98372.72
2023-03-10T20:13:09.671Z,98376.56
2023-03-10T20:18:11.432Z,98415.19
2023-03-10T20:23:13.546Z,98442.75
2023-03-10T20:28:15.517Z,98474.19
2023-03-10T20:33:21.215Z,98498.47
2023-03-10T20:38:22.832Z,98513.72
2023-03-10T20:43:24.308Z,98526.31
2023-03-10T20:48:25.724Z,98543.78
2023-03-10T20:53:27.800Z,98593.19
2023-03-10T20:58:29.686Z,98613.84
2023-03-10T21:03:31.147Z,98630.22
2023-03-10T21:08:32.531Z,98646.81
2023-03-10T21:13:34.453Z,98669.34
2023-03-10T21:18:36.016Z,98695.50
2023-03-10T21:23:39.076Z,98720.69
2023-03-10T21:28:41.254Z,98717.25
2023-03-10T21:33:42.781Z,98729.59
2023-03-10T21:38:47.251Z,98758.94
2023-03-10T21:43:49.168Z,98764.34
2023-03-10T21:48:50.604Z,98773.78
2023-03-10T21:53:56.224Z,98777.88
2023-03-10T21:58:58.456Z,98804.22
2023-03-10T22:03:59.914Z,98820.63
2023-03-10T22:09:01.424Z,98821.91
2023-03-10T22:14:03.302Z,98803.34
2023-03-10T22:19:04.787Z,98835.66
2023-03-10T22:24:06.390Z,98840.22
2023-03-10T22:29:07.740Z,98853.88
2023-03-10T22:34:09.170Z,98861.53
2023-03-10T22:39:12.146Z,98867.31
2023-03-10T22:44:13.571Z,98898.94
2023-03-10T22:49:15.034Z,98911.84
2023-03-10T22:54:16.340Z,98925.84
2023-03-10T22:59:18.388Z,98942.88
2023-03-10T23:04:19.715Z,98962.53
2023-03-10T23:09:21.081Z,98963.06
2023-03-10T23:14:22.514Z,98974.91
2023-03-10T23:19:23.888Z,98967.56
2023-03-10T23:24:25.350Z,98972.56
2023-03-10T23:29:26.999Z,98973.16
2023-03-10T23:34:28.350Z,98984.53
2023-03-10T23:39:29.820Z,98984.53
2023-03-10T23:44:31.196Z,98981.50
2023-03-10T23:49:33.209Z,98971.84
2023-03-10T23:54:34.584Z,98963.53
2023-03-10T23:59:35.956Z,99004.16
